sensor_id;sensor_type;location;lat;lon;timestamp;temperature;humidity
2653;DHT22;1336;48.692;9.144;2023-05-09T05:00:25;15.30;97.20
2653;DHT22;1336;48.692;9.144;2023-05-09T05:01:17;15.30;97.20
2653;DHT22;1336;48.692;9.144;2023-05-09T05:02:08;15.30;97.20
2653;DHT22;1336;48.692;9.144;2023-05-09T05:03:00;15.40;97.20
2653;DHT22;1336;48.692;9.144;2023-05-09T05:03:50;15.40;97.20
2653;DHT22;1336;48.692;9.144;2023-05-09T05:04:42;15.40;97.20
2653;DHT22;1336;48.692;9.144;2023-05-09T05:05:33;15.50;97.20
2653;DHT22;1336;48.692;9.144;2023-05-09T05:06:24;15.50;97.20
2653;DHT22;1336;48.692;9.144;2023-05-09T05:07:15;15.50;97.20
2653;DHT22;1336;48.692;9.144;2023-05-09T05:08:07;15.50;97.20
2653;DHT22;1336;48.692;9.144;2023-05-09T05:08:58;15.50;97.20
2653;DHT22;1336;48.692;9.144;2023-05-09T05:09:49;15.50;97.20
2653;DHT22;1336;48.692;9.144;2023-05-09T05:10:40;15.60;97.20
2653;DHT22;1336;48.692;9.144;2023-05-09T05:11:32;15.60;97.20
2653;DHT22;1336;48.692;9.144;2023-05-09T05:12:22;15.60;97.20
2653;DHT22;1336;48.692;9.144;2023-05-09T05:13:14;15.60;97.20
2653;DHT22;1336;48.692;9.144;2023-05-09T05:14:05;15.60;97.20
2653;DHT22;1336;48.692;9.144;2023-05-09T05:14:57;15.60;97.20
2653;DHT22;1336;48.692;9.144;2023-05-09T05:15:49;15.70;97.20
2653;DHT22;1336;48.692;9.144;2023-05-09T05:16:41;15.70;97.20
2653;DHT22;1336;48.692;9.144;2023-05-09T05:17:31;15.70;97.20
2653;DHT22;1336;48.692;9.144;2023-05-09T05:18:23;15.70;97.20
2653;DHT22;1336;48.692;9.144;2023-05-09T05:19:14;15.80;97.20
2653;DHT22;1336;48.692;9.144;2023-05-09T05:20:06;15.80;97.20
2653;DHT22;1336;48.692;9.144;2023-05-09T05:20:59;15.90;97.20
2653;DHT22;1336;48.692;9.144;2023-05-09T05:21:51;15.90;97.20
2653;DHT22;1336;48.692;9.144;2023-05-09T05:22:42;16.00;97.20
2653;DHT22;1336;48.692;9.144;2023-05-09T05:23:34;16.00;97.20
2653;DHT22;1336;48.692;9.144;2023-05-09T05:24:24;16.00;97.20
2653;DHT22;1336;48.692;9.144;2023-05-09T05:25:16;16.10;97.20
2653;DHT22;1336;48.692;9.144;2023-05-09T05:26:08;16.10;97.20
2653;DHT22;1336;48.692;9.144;2023-05-09T05:26:59;16.10;97.20
2653;DHT22;1336;48.692;9.144;2023-05-09T05:27:50;16.10;97.20
2653;DHT22;1336;48.692;9.144;2023-05-09T05:28:42;16.20;97.20
2653;DHT22;1336;48.692;9.144;2023-05-09T05:29:32;16.20;97.20
2653;DHT22;1336;48.692;9.144;2023-05-09T05:30:24;16.20;97.20
2653;DHT22;1336;48.692;9.144;2023-05-09T05:31:16;16.20;97.20
2653;DHT22;1336;48.692;9.144;2023-05-09T05:32:08;16.20;97.20
2653;DHT22;1336;48.692;9.144;2023-05-09T05:33:00;16.20;97.20
2653;DHT22;1336;48.692;9.144;2023-05-09T05:33:51;16.20;97.20
2653;DHT22;1336;48.692;9.144;2023-05-09T05:34:42;16.20;97.20
2653;DHT22;1336;48.692;9.144;2023-05-09T05:35:34;16.20;97.20
2653;DHT22;1336;48.692;9.144;2023-05-09T05:36:25;16.20;97.20
2653;DHT22;1336;48.692;9.144;2023-05-09T05:37:16;16.20;97.20
2653;DHT22;1336;48.692;9.144;2023-05-09T05:38:07;16.20;97.20
2653;DHT22;1336;48.692;9.144;2023-05-09T05:38:59;16.20;97.20
2653;DHT22;1336;48.692;9.144;2023-05-09T05:39:49;16.20;97.20
2653;DHT22;1336;48.692;9.144;2023-05-09T05:40:41;16.20;97.20
2653;DHT22;1336;48.692;9.144;2023-05-09T05:41:32;16.20;97.20
2653;DHT22;1336;48.692;9.144;2023-05-09T05:42:23;16.20;97.20
2653;DHT22;1336;48.692;9.144;2023-05-09T05:43:14;16.20;97.20
2653;DHT22;1336;48.692;9.144;2023-05-09T05:44:06;16.30;97.20
2653;DHT22;1336;48.692;9.144;2023-05-09T05:44:56;16.30;97.20
2653;DHT22;1336;48.692;9.144;2023-05-09T05:45:53;16.30;97.20
2653;DHT22;1336;48.692;9.144;2023-05-09T05:46:46;16.40;97.20
2653;DHT22;1336;48.692;9.144;2023-05-09T05:47:37;16.40;97.20
2653;DHT22;1336;48.692;9.144;2023-05-09T05:48:28;16.40;97.20
2653;DHT22;1336;48.692;9.144;2023-05-09T05:49:20;16.40;97.20
2653;DHT22;1336;48.692;9.144;2023-05-09T05:50:10;16.40;97.20
2653;DHT22;1336;48.692;9.144;2023-05-09T05:51:02;16.40;97.20
2653;DHT22;1336;48.692;9.144;2023-05-09T05:51:53;16.40;97.20
2653;DHT22;1336;48.692;9.144;2023-05-09T05:52:45;16.40;97.20
2653;DHT22;1336;48.692;9.144;2023-05-09T05:53:35;16.40;97.20
2653;DHT22;1336;48.692;9.144;2023-05-09T05:54:27;16.50;97.20
2653;DHT22;1336;48.692;9.144;2023-05-09T05:55:18;16.50;97.20
2653;DHT22;1336;48.692;9.144;2023-05-09T05:56:10;16.50;97.20
2653;DHT22;1336;48.692;9.144;2023-05-09T05:57:00;16.50;97.20
2653;DHT22;1336;48.692;9.144;2023-05-09T05:57:52;16.50;97.20
2653;DHT22;1336;48.692;9.144;2023-05-09T05:58:43;16.60;97.20
2653;DHT22;1336;48.692;9.144;2023-05-09T05:59:35;16.60;97.20
2653;DHT22;1336;48.692;9.144;2023-05-09T06:00:25;16.60;97.20
2653;DHT22;1336;48.692;9.144;2023-05-09T06:01:17;16.70;97.20
2653;DHT22;1336;48.692;9.144;2023-05-09T06:02:12;16.70;97.20
2653;DHT22;1336;48.692;9.144;2023-05-09T06:03:07;16.70;97.20
2653;DHT22;1336;48.692;9.144;2023-05-09T06:03:58;16.80;97.20
2653;DHT22;1336;48.692;9.144;2023-05-09T06:04:50;16.70;97.20
2653;DHT22;1336;48.692;9.144;2023-05-09T06:05:41;16.70;97.20
2653;DHT22;1336;48.692;9.144;2023-05-09T06:06:33;16.70;97.20
2653;DHT22;1336;48.692;9.144;2023-05-09T06:07:24;16.70;97.20
2653;DHT22;1336;48.692;9.144;2023-05-09T06:08:16;16.70;97.20
2653;DHT22;1336;48.692;9.144;2023-05-09T06:09:07;16.70;97.20
2653;DHT22;1336;48.692;9.144;2023-05-09T06:09:58;16.70;97.20
2653;DHT22;1336;48.692;9.144;2023-05-09T06:10:49;16.70;97.20
2653;DHT22;1336;48.692;9.144;2023-05-09T06:11:41;16.70;97.20
2653;DHT22;1336;48.692;9.144;2023-05-09T06:12:32;16.70;97.20
2653;DHT22;1336;48.692;9.144;2023-05-09T06:13:23;16.70;97.20
2653;DHT22;1336;48.692;9.144;2023-05-09T06:14:14;16.70;97.20
2653;DHT22;1336;48.692;9.144;2023-05-09T06:15:06;16.70;97.20
2653;DHT22;1336;48.692;9.144;2023-05-09T06:15:57;16.70;97.20
2653;DHT22;1336;48.692;9.144;2023-05-09T06:16:49;16.70;97.20
2653;DHT22;1336;48.692;9.144;2023-05-09T06:17:41;16.70;97.20
2653;DHT22;1336;48.692;9.144;2023-05-09T06:18:34;16.70;97.20
2653;DHT22;1336;48.692;9.144;2023-05-09T06:19:25;16.70;97.20
2653;DHT22;1336;48.692;9.144;2023-05-09T06:20:16;16.70;97.20
2653;DHT22;1336;48.692;9.144;2023-05-09T06:21:07;16.70;97.20
2653;DHT22;1336;48.692;9.144;2023-05-09T06:21:59;16.70;97.20
2653;DHT22;1336;48.692;9.144;2023-05-09T06:22:50;16.70;97.20
2653;DHT22;1336;48.692;9.144;2023-05-09T06:23:42;16.70;97.20
2653;DHT22;1336;48.692;9.144;2023-05-09T06:24:33;16.80;97.20
2653;DHT22;1336;48.692;9.144;2023-05-09T06:25:24;16.80;97.20
2653;DHT22;1336;48.692;9.144;2023-05-09T06:26:15;16.80;97.20
2653;DHT22;1336;48.692;9.144;2023-05-09T06:27:07;16.80;97.20
2653;DHT22;1336;48.692;9.144;2023-05-09T06:27:58;16.80;97.20
2653;DHT22;1336;48.692;9.144;2023-05-09T06:28:50;16.90;97.20
2653;DHT22;1336;48.692;9.144;2023-05-09T06:29:40;16.90;97.20
2653;DHT22;1336;48.692;9.144;2023-05-09T06:30:32;17.00;97.20
2653;DHT22;1336;48.692;9.144;2023-05-09T06:31:23;17.00;97.20
2653;DHT22;1336;48.692;9.144;2023-05-09T06:32:15;17.10;97.20
2653;DHT22;1336;48.692;9.144;2023-05-09T06:33:09;17.20;97.20
2653;DHT22;1336;48.692;9.144;2023-05-09T06:34:00;17.20;97.20
2653;DHT22;1336;48.692;9.144;2023-05-09T06:34:52;17.30;97.20
2653;DHT22;1336;48.692;9.144;2023-05-09T06:35:43;17.40;97.20
2653;DHT22;1336;48.692;9.144;2023-05-09T06:36:34;17.40;97.20
2653;DHT22;1336;48.692;9.144;2023-05-09T06:37:26;17.40;97.20
2653;DHT22;1336;48.692;9.144;2023-05-09T06:38:17;17.40;97.20
2653;DHT22;1336;48.692;9.144;2023-05-09T06:39:08;17.40;97.20
2653;DHT22;1336;48.692;9.144;2023-05-09T06:39:59;17.40;97.20
2653;DHT22;1336;48.692;9.144;2023-05-09T06:40:51;17.40;97.20
2653;DHT22;1336;48.692;9.144;2023-05-09T06:41:42;17.50;97.20
2653;DHT22;1336;48.692;9.144;2023-05-09T06:42:33;17.50;97.20
2653;DHT22;1336;48.692;9.144;2023-05-09T06:43:24;17.50;97.20
2653;DHT22;1336;48.692;9.144;2023-05-09T06:44:16;17.50;97.20
2653;DHT22;1336;48.692;9.144;2023-05-09T06:45:07;17.50;97.20
2653;DHT22;1336;48.692;9.144;2023-05-09T06:45:59;17.50;97.20
2653;DHT22;1336;48.692;9.144;2023-05-09T06:46:50;17.60;97.20
2653;DHT22;1336;48.692;9.144;2023-05-09T06:47:42;17.60;97.20
2653;DHT22;1336;48.692;9.144;2023-05-09T06:48:34;17.60;97.20
2653;DHT22;1336;48.692;9.144;2023-05-09T06:49:25;17.70;97.20
2653;DHT22;1336;48.692;9.144;2023-05-09T06:50:16;17.70;97.20
2653;DHT22;1336;48.692;9.144;2023-05-09T06:51:08;17.80;97.20
2653;DHT22;1336;48.692;9.144;2023-05-09T06:51:59;17.80;97.20
2653;DHT22;1336;48.692;9.144;2023-05-09T06:52:50;17.90;97.20
2653;DHT22;1336;48.692;9.144;2023-05-09T06:53:41;17.90;97.20
2653;DHT22;1336;48.692;9.144;2023-05-09T06:54:33;17.90;97.20
2653;DHT22;1336;48.692;9.144;2023-05-09T06:55:23;18.00;97.20
2653;DHT22;1336;48.692;9.144;2023-05-09T06:56:15;18.00;97.20
2653;DHT22;1336;48.692;9.144;2023-05-09T06:57:06;18.10;97.20
2653;DHT22;1336;48.692;9.144;2023-05-09T06:57:58;18.20;97.20
2653;DHT22;1336;48.692;9.144;2023-05-09T06:58:48;18.20;97.20
2653;DHT22;1336;48.692;9.144;2023-05-09T06:59:40;18.30;97.20
2653;DHT22;1336;48.692;9.144;2023-05-09T07:00:31;18.40;97.20
2653;DHT22;1336;48.692;9.144;2023-05-09T07:01:23;18.50;97.20
2653;DHT22;1336;48.692;9.144;2023-05-09T07:02:13;18.60;97.20
2653;DHT22;1336;48.692;9.144;2023-05-09T07:03:05;18.70;97.20
2653;DHT22;1336;48.692;9.144;2023-05-09T07:03:58;18.70;97.20
2653;DHT22;1336;48.692;9.144;2023-05-09T07:04:49;18.80;97.20
2653;DHT22;1336;48.692;9.144;2023-05-09T07:05:40;18.80;97.20
2653;DHT22;1336;48.692;9.144;2023-05-09T07:06:32;18.80;97.20
2653;DHT22;1336;48.692;9.144;2023-05-09T07:07:22;18.80;97.20
2653;DHT22;1336;48.692;9.144;2023-05-09T07:08:14;18.80;97.20
2653;DHT22;1336;48.692;9.144;2023-05-09T07:09:05;18.90;97.20
2653;DHT22;1336;48.692;9.144;2023-05-09T07:09:58;18.90;97.20
2653;DHT22;1336;48.692;9.144;2023-05-09T07:10:50;18.90;97.20
2653;DHT22;1336;48.692;9.144;2023-05-09T07:11:42;19.00;97.20
2653;DHT22;1336;48.692;9.144;2023-05-09T07:12:32;19.00;97.20
2653;DHT22;1336;48.692;9.144;2023-05-09T07:13:24;19.00;97.20
2653;DHT22;1336;48.692;9.144;2023-05-09T07:14:15;19.00;97.20
2653;DHT22;1336;48.692;9.144;2023-05-09T07:15:08;19.00;97.20
2653;DHT22;1336;48.692;9.144;2023-05-09T07:15:59;19.00;97.20
2653;DHT22;1336;48.692;9.144;2023-05-09T07:16:50;19.00;97.20
2653;DHT22;1336;48.692;9.144;2023-05-09T07:17:41;19.00;97.20
2653;DHT22;1336;48.692;9.144;2023-05-09T07:18:33;19.00;97.20
2653;DHT22;1336;48.692;9.144;2023-05-09T07:19:25;19.00;97.20
2653;DHT22;1336;48.692;9.144;2023-05-09T07:20:17;19.10;97.20
2653;DHT22;1336;48.692;9.144;2023-05-09T07:21:08;19.10;97.20
2653;DHT22;1336;48.692;9.144;2023-05-09T07:22:00;19.20;97.20
2653;DHT22;1336;48.692;9.144;2023-05-09T07:22:51;19.20;97.20
2653;DHT22;1336;48.692;9.144;2023-05-09T07:23:42;19.30;97.20
2653;DHT22;1336;48.692;9.144;2023-05-09T07:24:33;19.30;97.20
2653;DHT22;1336;48.692;9.144;2023-05-09T07:25:25;19.40;97.20
2653;DHT22;1336;48.692;9.144;2023-05-09T07:26:16;19.40;97.20
2653;DHT22;1336;48.692;9.144;2023-05-09T07:27:07;19.40;97.20
2653;DHT22;1336;48.692;9.144;2023-05-09T07:27:58;19.40;97.20
2653;DHT22;1336;48.692;9.144;2023-05-09T07:28:50;19.40;97.20
2653;DHT22;1336;48.692;9.144;2023-05-09T07:29:41;19.50;97.20
2653;DHT22;1336;48.692;9.144;2023-05-09T07:30:32;19.50;97.20
2653;DHT22;1336;48.692;9.144;2023-05-09T07:31:24;19.50;97.20
2653;DHT22;1336;48.692;9.144;2023-05-09T07:32:15;19.50;97.20
2653;DHT22;1336;48.692;9.144;2023-05-09T07:33:07;19.50;97.20
2653;DHT22;1336;48.692;9.144;2023-05-09T07:33:57;19.50;97.20
2653;DHT22;1336;48.692;9.144;2023-05-09T07:34:50;19.60;97.20
2653;DHT22;1336;48.692;9.144;2023-05-09T07:35:41;19.60;97.20
2653;DHT22;1336;48.692;9.144;2023-05-09T07:36:33;19.70;97.20
2653;DHT22;1336;48.692;9.144;2023-05-09T07:37:24;19.70;97.20
2653;DHT22;1336;48.692;9.144;2023-05-09T07:38:16;19.80;97.20
2653;DHT22;1336;48.692;9.144;2023-05-09T07:39:06;19.90;97.20
2653;DHT22;1336;48.692;9.144;2023-05-09T07:39:58;19.90;97.20
2653;DHT22;1336;48.692;9.144;2023-05-09T07:40:49;20.00;97.20
2653;DHT22;1336;48.692;9.144;2023-05-09T07:41:42;20.00;97.20
2653;DHT22;1336;48.692;9.144;2023-05-09T07:42:33;20.10;97.20
2653;DHT22;1336;48.692;9.144;2023-05-09T07:43:25;20.10;97.20
2653;DHT22;1336;48.692;9.144;2023-05-09T07:44:16;20.20;97.20
2653;DHT22;1336;48.692;9.144;2023-05-09T07:45:09;20.20;97.20
2653;DHT22;1336;48.692;9.144;2023-05-09T07:46:00;20.20;97.20
2653;DHT22;1336;48.692;9.144;2023-05-09T07:46:52;20.20;97.20
2653;DHT22;1336;48.692;9.144;2023-05-09T07:47:44;20.10;97.20
2653;DHT22;1336;48.692;9.144;2023-05-09T07:48:36;20.10;97.20
2653;DHT22;1336;48.692;9.144;2023-05-09T07:49:27;20.10;97.20
2653;DHT22;1336;48.692;9.144;2023-05-09T07:50:20;20.20;97.20
2653;DHT22;1336;48.692;9.144;2023-05-09T07:51:12;20.20;97.20
2653;DHT22;1336;48.692;9.144;2023-05-09T07:52:04;20.20;97.20
2653;DHT22;1336;48.692;9.144;2023-05-09T07:52:55;20.30;97.20
2653;DHT22;1336;48.692;9.144;2023-05-09T07:53:46;20.20;97.20
2653;DHT22;1336;48.692;9.144;2023-05-09T07:54:37;20.20;97.20
2653;DHT22;1336;48.692;9.144;2023-05-09T07:55:29;20.20;97.20
2653;DHT22;1336;48.692;9.144;2023-05-09T07:56:20;20.10;97.20
2653;DHT22;1336;48.692;9.144;2023-05-09T07:57:12;20.20;97.20
2653;DHT22;1336;48.692;9.144;2023-05-09T07:58:02;20.20;97.20
2653;DHT22;1336;48.692;9.144;2023-05-09T07:58:54;20.30;97.20
2653;DHT22;1336;48.692;9.144;2023-05-09T07:59:45;20.40;97.20
2653;DHT22;1336;48.692;9.144;2023-05-09T08:00:36;20.50;97.20
2653;DHT22;1336;48.692;9.144;2023-05-09T08:01:27;20.60;97.20
2653;DHT22;1336;48.692;9.144;2023-05-09T08:02:19;20.70;97.20
2653;DHT22;1336;48.692;9.144;2023-05-09T08:03:09;20.80;97.20
2653;DHT22;1336;48.692;9.144;2023-05-09T08:04:01;20.90;97.20
2653;DHT22;1336;48.692;9.144;2023-05-09T08:04:52;20.90;97.20
2653;DHT22;1336;48.692;9.144;2023-05-09T08:05:45;21.00;97.20
2653;DHT22;1336;48.692;9.144;2023-05-09T08:06:36;21.10;97.20
2653;DHT22;1336;48.692;9.144;2023-05-09T08:07:28;21.10;97.20
2653;DHT22;1336;48.692;9.144;2023-05-09T08:08:18;21.20;97.20
2653;DHT22;1336;48.692;9.144;2023-05-09T08:09:10;21.30;97.20
2653;DHT22;1336;48.692;9.144;2023-05-09T08:10:01;21.40;97.20
2653;DHT22;1336;48.692;9.144;2023-05-09T08:10:53;21.50;97.20
2653;DHT22;1336;48.692;9.144;2023-05-09T08:11:43;21.60;97.20
2653;DHT22;1336;48.692;9.144;2023-05-09T08:12:35;21.60;97.20
2653;DHT22;1336;48.692;9.144;2023-05-09T08:13:26;21.60;97.20
2653;DHT22;1336;48.692;9.144;2023-05-09T08:14:18;21.60;97.20
2653;DHT22;1336;48.692;9.144;2023-05-09T08:15:09;21.60;97.20
2653;DHT22;1336;48.692;9.144;2023-05-09T08:16:01;21.60;97.20
2653;DHT22;1336;48.692;9.144;2023-05-09T08:16:51;21.60;97.20
2653;DHT22;1336;48.692;9.144;2023-05-09T08:17:43;21.60;97.20
2653;DHT22;1336;48.692;9.144;2023-05-09T08:18:34;21.70;97.20
2653;DHT22;1336;48.692;9.144;2023-05-09T08:19:26;21.70;97.20
2653;DHT22;1336;48.692;9.144;2023-05-09T08:20:16;21.90;97.20
2653;DHT22;1336;48.692;9.144;2023-05-09T08:21:10;22.00;97.20
2653;DHT22;1336;48.692;9.144;2023-05-09T08:22:00;22.10;97.20
2653;DHT22;1336;48.692;9.144;2023-05-09T08:22:52;22.30;97.20
2653;DHT22;1336;48.692;9.144;2023-05-09T08:23:43;22.40;97.20
2653;DHT22;1336;48.692;9.144;2023-05-09T08:24:34;22.60;97.20
2653;DHT22;1336;48.692;9.144;2023-05-09T08:25:25;22.70;97.20
2653;DHT22;1336;48.692;9.144;2023-05-09T08:26:17;22.80;97.20
2653;DHT22;1336;48.692;9.144;2023-05-09T08:27:08;23.00;97.20
2653;DHT22;1336;48.692;9.144;2023-05-09T08:28:00;23.10;97.20
2653;DHT22;1336;48.692;9.144;2023-05-09T08:28:51;23.20;97.20
2653;DHT22;1336;48.692;9.144;2023-05-09T08:29:43;23.20;97.20
2653;DHT22;1336;48.692;9.144;2023-05-09T08:30:35;23.20;97.20
2653;DHT22;1336;48.692;9.144;2023-05-09T08:31:27;23.20;97.20
2653;DHT22;1336;48.692;9.144;2023-05-09T08:32:17;23.10;97.20
2653;DHT22;1336;48.692;9.144;2023-05-09T08:33:10;23.00;97.20
2653;DHT22;1336;48.692;9.144;2023-05-09T08:34:01;23.00;97.20
2653;DHT22;1336;48.692;9.144;2023-05-09T08:34:52;23.00;97.20
2653;DHT22;1336;48.692;9.144;2023-05-09T08:35:43;22.90;97.20
2653;DHT22;1336;48.692;9.144;2023-05-09T08:36:36;22.90;97.20
2653;DHT22;1336;48.692;9.144;2023-05-09T08:37:27;22.80;97.20
2653;DHT22;1336;48.692;9.144;2023-05-09T08:38:19;22.80;97.20
2653;DHT22;1336;48.692;9.144;2023-05-09T08:39:10;22.80;97.20
2653;DHT22;1336;48.692;9.144;2023-05-09T08:40:02;22.80;97.20
2653;DHT22;1336;48.692;9.144;2023-05-09T08:40:59;22.90;97.20
2653;DHT22;1336;48.692;9.144;2023-05-09T08:41:52;22.90;97.20
2653;DHT22;1336;48.692;9.144;2023-05-09T08:42:47;22.90;97.20
2653;DHT22;1336;48.692;9.144;2023-05-09T08:43:40;23.00;97.20
2653;DHT22;1336;48.692;9.144;2023-05-09T08:44:31;23.00;97.20
2653;DHT22;1336;48.692;9.144;2023-05-09T08:45:25;23.00;97.20
2653;DHT22;1336;48.692;9.144;2023-05-09T08:46:21;22.90;97.20
2653;DHT22;1336;48.692;9.144;2023-05-09T08:47:14;22.80;97.20
2653;DHT22;1336;48.692;9.144;2023-05-09T08:48:05;22.70;97.20
2653;DHT22;1336;48.692;9.144;2023-05-09T08:48:58;22.60;97.20
2653;DHT22;1336;48.692;9.144;2023-05-09T08:49:51;22.50;97.20
2653;DHT22;1336;48.692;9.144;2023-05-09T08:50:43;22.40;97.20
2653;DHT22;1336;48.692;9.144;2023-05-09T08:51:37;22.50;97.20
2653;DHT22;1336;48.692;9.144;2023-05-09T08:52:29;22.40;97.20
2653;DHT22;1336;48.692;9.144;2023-05-09T08:53:21;22.50;97.20
2653;DHT22;1336;48.692;9.144;2023-05-09T08:54:12;22.50;97.20
2653;DHT22;1336;48.692;9.144;2023-05-09T08:55:04;22.50;97.20
2653;DHT22;1336;48.692;9.144;2023-05-09T08:55:57;22.50;97.20
2653;DHT22;1336;48.692;9.144;2023-05-09T08:56:50;22.60;97.20
2653;DHT22;1336;48.692;9.144;2023-05-09T08:57:40;22.50;97.20
2653;DHT22;1336;48.692;9.144;2023-05-09T08:58:33;22.50;97.20
2653;DHT22;1336;48.692;9.144;2023-05-09T08:59:24;22.50;97.20
2653;DHT22;1336;48.692;9.144;2023-05-09T09:00:16;22.50;97.20
2653;DHT22;1336;48.692;9.144;2023-05-09T09:01:12;22.40;97.20
2653;DHT22;1336;48.692;9.144;2023-05-09T09:02:05;22.40;97.20
2653;DHT22;1336;48.692;9.144;2023-05-09T09:02:57;22.40;97.20
2653;DHT22;1336;48.692;9.144;2023-05-09T09:03:51;22.30;97.20
2653;DHT22;1336;48.692;9.144;2023-05-09T09:04:43;22.30;97.20
2653;DHT22;1336;48.692;9.144;2023-05-09T09:05:36;22.20;97.20
2653;DHT22;1336;48.692;9.144;2023-05-09T09:06:27;22.10;97.20
2653;DHT22;1336;48.692;9.144;2023-05-09T09:07:21;22.10;97.20
2653;DHT22;1336;48.692;9.144;2023-05-09T09:08:14;22.00;97.20
2653;DHT22;1336;48.692;9.144;2023-05-09T09:09:06;22.00;97.20
2653;DHT22;1336;48.692;9.144;2023-05-09T09:09:58;22.00;97.20
2653;DHT22;1336;48.692;9.144;2023-05-09T09:10:49;22.00;97.20
2653;DHT22;1336;48.692;9.144;2023-05-09T09:11:41;22.00;97.20
2653;DHT22;1336;48.692;9.144;2023-05-09T09:12:33;22.00;97.20
2653;DHT22;1336;48.692;9.144;2023-05-09T09:13:25;22.00;97.20
2653;DHT22;1336;48.692;9.144;2023-05-09T09:14:22;22.10;97.20
2653;DHT22;1336;48.692;9.144;2023-05-09T09:15:15;22.10;97.20
2653;DHT22;1336;48.692;9.144;2023-05-09T09:16:09;22.00;97.20
2653;DHT22;1336;48.692;9.144;2023-05-09T09:17:04;22.00;97.20
2653;DHT22;1336;48.692;9.144;2023-05-09T09:17:57;22.00;97.20
2653;DHT22;1336;48.692;9.144;2023-05-09T09:18:51;22.00;97.20
2653;DHT22;1336;48.692;9.144;2023-05-09T09:19:43;21.90;97.20
2653;DHT22;1336;48.692;9.144;2023-05-09T09:20:38;21.90;97.20
2653;DHT22;1336;48.692;9.144;2023-05-09T09:21:31;21.80;97.20
2653;DHT22;1336;48.692;9.144;2023-05-09T09:22:24;21.80;97.20
2653;DHT22;1336;48.692;9.144;2023-05-09T09:23:24;21.80;97.20
2653;DHT22;1336;48.692;9.144;2023-05-09T09:24:19;21.70;97.20
2653;DHT22;1336;48.692;9.144;2023-05-09T09:25:11;21.70;97.20
2653;DHT22;1336;48.692;9.144;2023-05-09T09:26:03;21.70;97.20
2653;DHT22;1336;48.692;9.144;2023-05-09T09:26:54;21.80;97.20
2653;DHT22;1336;48.692;9.144;2023-05-09T09:27:45;21.80;97.20
2653;DHT22;1336;48.692;9.144;2023-05-09T09:28:37;21.80;97.20
2653;DHT22;1336;48.692;9.144;2023-05-09T09:29:28;21.80;97.20
2653;DHT22;1336;48.692;9.144;2023-05-09T09:30:23;21.80;97.20
2653;DHT22;1336;48.692;9.144;2023-05-09T09:31:21;21.80;97.20
2653;DHT22;1336;48.692;9.144;2023-05-09T09:32:13;21.80;97.20
2653;DHT22;1336;48.692;9.144;2023-05-09T09:33:05;21.90;97.20
2653;DHT22;1336;48.692;9.144;2023-05-09T09:33:59;22.00;97.20
2653;DHT22;1336;48.692;9.144;2023-05-09T09:34:50;22.00;97.20
2653;DHT22;1336;48.692;9.144;2023-05-09T09:35:41;22.10;97.20
2653;DHT22;1336;48.692;9.144;2023-05-09T09:36:32;22.20;97.20
2653;DHT22;1336;48.692;9.144;2023-05-09T09:37:27;22.20;97.20
2653;DHT22;1336;48.692;9.144;2023-05-09T09:38:18;22.30;97.20
2653;DHT22;1336;48.692;9.144;2023-05-09T09:39:12;22.30;97.20
2653;DHT22;1336;48.692;9.144;2023-05-09T09:40:03;22.40;97.20
2653;DHT22;1336;48.692;9.144;2023-05-09T09:40:58;22.40;97.20
2653;DHT22;1336;48.692;9.144;2023-05-09T09:41:48;22.40;97.20
2653;DHT22;1336;48.692;9.144;2023-05-09T09:42:41;22.50;97.20
2653;DHT22;1336;48.692;9.144;2023-05-09T09:43:32;22.50;97.20
2653;DHT22;1336;48.692;9.144;2023-05-09T09:44:24;22.50;97.20
2653;DHT22;1336;48.692;9.144;2023-05-09T09:45:16;22.50;97.20
2653;DHT22;1336;48.692;9.144;2023-05-09T09:46:08;22.50;97.20
2653;DHT22;1336;48.692;9.144;2023-05-09T09:46:59;22.60;97.20
2653;DHT22;1336;48.692;9.144;2023-05-09T09:47:52;22.60;97.20
2653;DHT22;1336;48.692;9.144;2023-05-09T09:48:45;22.60;97.20
2653;DHT22;1336;48.692;9.144;2023-05-09T09:49:45;22.60;97.20
2653;DHT22;1336;48.692;9.144;2023-05-09T09:50:36;22.60;97.20
2653;DHT22;1336;48.692;9.144;2023-05-09T09:51:28;22.50;97.20
2653;DHT22;1336;48.692;9.144;2023-05-09T09:52:22;22.50;97.20
2653;DHT22;1336;48.692;9.144;2023-05-09T09:53:19;22.50;97.20
2653;DHT22;1336;48.692;9.144;2023-05-09T09:54:11;22.50;97.20
2653;DHT22;1336;48.692;9.144;2023-05-09T09:55:03;22.50;97.20
2653;DHT22;1336;48.692;9.144;2023-05-09T09:55:54;22.50;97.20
2653;DHT22;1336;48.692;9.144;2023-05-09T09:56:48;22.60;97.20
2653;DHT22;1336;48.692;9.144;2023-05-09T09:57:39;22.60;97.20
2653;DHT22;1336;48.692;9.144;2023-05-09T09:58:34;22.60;97.20
2653;DHT22;1336;48.692;9.144;2023-05-09T09:59:26;22.70;97.20
2653;DHT22;1336;48.692;9.144;2023-05-09T10:00:19;22.70;97.20
2653;DHT22;1336;48.692;9.144;2023-05-09T10:01:13;22.90;97.20
2653;DHT22;1336;48.692;9.144;2023-05-09T10:02:06;23.00;97.20
2653;DHT22;1336;48.692;9.144;2023-05-09T10:02:58;23.10;97.20
2653;DHT22;1336;48.692;9.144;2023-05-09T10:03:50;23.20;97.20
2653;DHT22;1336;48.692;9.144;2023-05-09T10:04:41;23.30;97.20
2653;DHT22;1336;48.692;9.144;2023-05-09T10:05:33;23.40;97.20
2653;DHT22;1336;48.692;9.144;2023-05-09T10:06:24;23.50;97.20
2653;DHT22;1336;48.692;9.144;2023-05-09T10:07:18;23.60;97.20
2653;DHT22;1336;48.692;9.144;2023-05-09T10:08:11;23.70;97.20
2653;DHT22;1336;48.692;9.144;2023-05-09T10:09:04;23.70;97.20
2653;DHT22;1336;48.692;9.144;2023-05-09T10:09:56;23.80;97.20
2653;DHT22;1336;48.692;9.144;2023-05-09T10:10:47;23.80;97.20
2653;DHT22;1336;48.692;9.144;2023-05-09T10:11:38;23.90;97.20
2653;DHT22;1336;48.692;9.144;2023-05-09T10:12:31;23.90;97.20
2653;DHT22;1336;48.692;9.144;2023-05-09T10:13:24;24.10;97.20
2653;DHT22;1336;48.692;9.144;2023-05-09T10:14:18;24.20;97.20
2653;DHT22;1336;48.692;9.144;2023-05-09T10:15:09;24.40;97.20
2653;DHT22;1336;48.692;9.144;2023-05-09T10:16:03;24.50;97.20
2653;DHT22;1336;48.692;9.144;2023-05-09T10:16:55;24.60;97.20
2653;DHT22;1336;48.692;9.144;2023-05-09T10:17:49;24.70;97.20
2653;DHT22;1336;48.692;9.144;2023-05-09T10:18:43;24.70;97.20
2653;DHT22;1336;48.692;9.144;2023-05-09T10:19:35;24.70;97.20
2653;DHT22;1336;48.692;9.144;2023-05-09T10:20:27;24.60;97.20
2653;DHT22;1336;48.692;9.144;2023-05-09T10:21:19;24.60;97.20
2653;DHT22;1336;48.692;9.144;2023-05-09T10:22:14;24.50;97.20
2653;DHT22;1336;48.692;9.144;2023-05-09T10:23:05;24.50;97.20
2653;DHT22;1336;48.692;9.144;2023-05-09T10:23:58;24.40;97.20
2653;DHT22;1336;48.692;9.144;2023-05-09T10:25:02;24.30;97.20
2653;DHT22;1336;48.692;9.144;2023-05-09T10:26:03;24.20;97.20
2653;DHT22;1336;48.692;9.144;2023-05-09T10:26:59;24.10;97.20
2653;DHT22;1336;48.692;9.144;2023-05-09T10:27:58;24.00;97.20
2653;DHT22;1336;48.692;9.144;2023-05-09T10:28:54;23.90;97.20
2653;DHT22;1336;48.692;9.144;2023-05-09T10:29:49;23.90;97.20
2653;DHT22;1336;48.692;9.144;2023-05-09T10:30:49;23.90;97.20
2653;DHT22;1336;48.692;9.144;2023-05-09T10:31:44;23.90;97.20
2653;DHT22;1336;48.692;9.144;2023-05-09T10:32:41;24.00;97.20
2653;DHT22;1336;48.692;9.144;2023-05-09T10:33:37;24.10;97.20
2653;DHT22;1336;48.692;9.144;2023-05-09T10:34:32;24.20;97.20
2653;DHT22;1336;48.692;9.144;2023-05-09T10:35:26;24.30;97.20
2653;DHT22;1336;48.692;9.144;2023-05-09T10:36:21;24.50;97.20
2653;DHT22;1336;48.692;9.144;2023-05-09T10:37:13;24.60;97.20
2653;DHT22;1336;48.692;9.144;2023-05-09T10:38:06;24.70;97.20
2653;DHT22;1336;48.692;9.144;2023-05-09T10:38:59;24.70;97.20
2653;DHT22;1336;48.692;9.144;2023-05-09T10:39:53;24.70;97.20